Esmond, Illinois
Current Conditions -  °F | °C
As of 4:15 PM on Sunday 21 Dec 2014 (Local Time) from KRPJ Reporting Station
Overcast Overcast  
Wind Chill: 26°   Ceiling: 2300
Heat Index: 35°   Visibility: 7mi
Dew Point: 32°   Wind: 13mph
Humidity: 88%   Direction: 160°SSE
Pressure: 30.04"   Gusts: NA
Location:  42.03°N, 88.94°W
Report Text: KRPJ 212215Z AUTO 16011KT 7SM OVC023 02/00 A3004 RMK AO2 T00161002
Loading
Personal Weather Stations






























Interactive Weather Map New forecast layout! Learn more

10-Day Weather Forecast

Advertisements
Track Severe Weather on mobile